40.2F
Current conditions from King Hill
Updated every 5 minutes
 
  Friday November 22, 2019

Observations for Westford

Westford

44° 37' 38"N, 73° 02' 29"W, Elevation 850 ft.
Eastern Time

Hourly observations for the last 72 hours

Date Time Temperature (°F) Humi-
dity

(%)
Wind
(mph)
Pressure Rain (in)
Air Dew 6 Hour 1 Hr 3 Hr 6 Hr Day
Alt
(in)
Sea
Level

(mb)
Max Min
22 10:00 41.3 38.3 89 S 8 G 20 29.52 999.8 0.00
22 09:00 42.2 37.7 84 S 8 G 22 29.53 999.9 0.00
22 08:00 40.5 36.3 85 S 9 G 18 29.54 1000.5 0.00
22 07:00 39.8 35.7 39.8 36.5 85 S 12 G 23 29.55 1000.6 0.00
22 06:00 39.5 35.4 85 S 8 G 25 29.58 1001.8 0.00
22 05:00 39.3 35.2 85 S 10 G 26 29.61 1002.6 0.00
22 04:00 38.8 35.0 86 S 12 G 24 29.63 1003.5 0.00
22 03:00 38.1 34.6 87 SSE 12 G 24 29.68 1005.0 0.00
22 02:00 36.7 34.0 90 S 9 G 25 29.70 1006.0 0.00
22 01:00 36.5 34.1 36.5 29.2 91 S 9 G 18 29.73 1006.7 0.00
22 00:00 35.8 34.0 93 SSE 6 G 14 29.74 1007.1 0.00
21 23:00 34.0 32.2 93 SSE 6 G 14 29.81 1009.5 0.00
21 22:00 34.4 31.2 88 SSE 3 G 13 29.85 1011.0 0.00
21 21:00 33.2 30.3 89 S 4 G 12 29.89 1012.1 0.00
21 20:00 31.9 29.3 90 SSE 4 G 11 29.92 1013.4 0.00
21 19:00 29.2 27.7 34.3 27.1 94 SSE 2 G 11 29.98 1015.1 0.00
21 18:00 27.3 26.1 95 ESE 0 G 2 30.01 1016.2 0.00
21 17:00 28.7 26.7 92 Calm 30.03 1016.9 0.00
21 16:00 31.7 28.8 89 S 0 G 6 30.06 1017.8 0.00
21 15:00 33.2 30.0 88 SSE 0 G 7 30.08 1018.5 0.00
21 14:00 34.3 30.6 86 S 1 G 4 30.09 1019.1 0.00
21 13:00 33.4 30.2 34.0 20.2 88 NE 2 G 4 30.11 1019.7 0.00
21 12:00 32.8 29.4 87 Calm 30.14 1020.7 0.00
21 11:00 32.5 29.3 88 NE 0 G 4 30.16 1021.4 0.00
21 10:00 30.6 28.6 92 Calm 30.19 1022.4 0.00
21 09:00 25.3 24.6 97 Calm 30.18 1022.0 0.00
21 08:00 21.3 20.1 95 Calm 30.18 1022.2 0.00
21 07:00 21.0 19.0 30.4 21.0 92 Calm 30.17 1021.7 0.00
21 06:00 24.2 22.7 94 Calm 30.17 1021.6 0.00
21 05:00 24.4 23.4 96 Calm 30.16 1021.3 0.00
21 04:00 24.9 23.9 96 Calm 30.15 1021.0 0.00
21 03:00 25.7 23.7 92 Calm 30.15 1020.9 0.00
21 02:00 29.5 27.7 93 Calm 30.14 1020.7 0.00
21 01:00 30.3 28.8 30.7 30.2 94 Calm 30.13 1020.3 0.00
21 00:00 30.2 28.9 95 Calm 30.12 1020.1 0.00
20 23:00 30.5 29.2 95 Calm 30.12 1019.9 0.00
20 22:00 30.6 29.3 95 Calm 30.12 1019.9 0.00
20 21:00 30.7 29.7 96 Calm 30.11 1019.7 0.00
20 20:00 30.6 29.6 96 Calm 30.10 1019.4 0.00
20 19:00 30.4 29.4 32.4 30.2 96 Calm 30.08 1018.8 0.00
20 18:00 30.2 29.2 96 Calm 30.07 1018.2 0.00
20 17:00 30.2 28.9 95 Calm 30.05 1017.5 0.00
20 16:00 30.8 29.3 94 Calm 30.03 1017.0 0.00
20 15:00 31.2 29.7 94 Calm 30.01 1016.5 0.00
20 14:00 32.1 30.3 93 Calm 30.00 1016.0 0.00
20 13:00 32.1 30.0 32.1 29.0 92 Calm 29.99 1015.7 0.00
20 12:00 31.8 29.5 91 Calm 29.98 1015.3 0.00
20 11:00 30.3 28.8 94 Calm 29.99 1015.6 0.00
20 10:00 29.8 28.3 94 Calm 29.98 1015.4 0.00
20 09:00 29.7 28.4 95 Calm 29.98 1015.2 0.00
20 08:00 29.4 28.4 96 Calm 29.97 1014.9 0.00
20 07:00 29.1 28.1 29.1 28.1 96 Calm 29.96 1014.6 0.00
20 06:00 28.7 27.7 96 Calm 29.94 1013.9 0.00
20 05:00 28.4 27.2 95 Calm 29.94 1013.9 0.00
20 04:00 28.3 26.8 94 Calm 29.94 1013.8 0.00
20 03:00 28.3 26.8 94 Calm 29.92 1013.1 0.00
20 02:00 28.5 27.3 95 Calm 29.91 1012.9 0.00
20 01:00 28.1 26.6 29.4 28.1 94 Calm 29.90 1012.6 0.00
20 00:00 28.8 27.3 94 Calm 29.90 1012.6 0.00
19 23:00 29.1 27.8 95 Calm 29.90 1012.7 0.00
19 22:00 29.2 27.9 95 Calm 29.90 1012.6 0.00
19 21:00 29.2 27.7 94 Calm 29.90 1012.5 0.00
19 20:00 29.1 27.8 95 Calm 29.90 1012.5 0.00
19 19:00 29.4 27.9 32.5 29.3 94 Calm 29.87 1011.6 0.00
19 18:00 29.4 28.1 95 Calm 29.85 1011.0 0.00
19 17:00 29.7 28.2 94 Calm 29.84 1010.5 0.00
19 16:00 30.8 29.0 93 Calm 29.82 1009.8 0.00
19 15:00 31.1 29.3 93 Calm 29.80 1009.2 0.00
19 14:00 32.4 30.1 91 Calm 29.77 1008.2 0.00
19 13:00 31.6 29.8 31.6 28.2 93 Calm 29.76 1007.8 0.00
19 12:00 30.4 28.6 93 Calm 29.75 1007.6 0.00
19 11:00 30.8 29.0 93 Calm 29.75 1007.6 0.00

Data generated by WxSolution Version 1.9.1.7, Build 2018.11.24.


 
 
Current Radar Loop:

Copyright © WestfordWeather.net 2007-2019. All rights reserved.